sensor_id;sensor_type;location;lat;lon;timestamp;pressure;altitude;pressure_sealevel;temperature;humidity
24230;BME280;12362;50.004;8.006;2022-10-16T00:00:37;100259.13;;;13.71;100.00
24230;BME280;12362;50.004;8.006;2022-10-16T00:03:05;100257.78;;;13.78;100.00
24230;BME280;12362;50.004;8.006;2022-10-16T00:05:30;100272.50;;;13.79;100.00
24230;BME280;12362;50.004;8.006;2022-10-16T00:07:56;100262.91;;;13.80;100.00
24230;BME280;12362;50.004;8.006;2022-10-16T00:10:21;100264.97;;;13.75;100.00
24230;BME280;12362;50.004;8.006;2022-10-16T00:12:47;100261.72;;;13.71;100.00
24230;BME280;12362;50.004;8.006;2022-10-16T00:15:18;100258.81;;;13.76;100.00
24230;BME280;12362;50.004;8.006;2022-10-16T00:17:44;100256.03;;;13.79;100.00
24230;BME280;12362;50.004;8.006;2022-10-16T00:20:09;100256.56;;;13.84;100.00
24230;BME280;12362;50.004;8.006;2022-10-16T00:22:35;100264.09;;;13.88;100.00
24230;BME280;12362;50.004;8.006;2022-10-16T00:25:00;100258.78;;;13.90;100.00
24230;BME280;12362;50.004;8.006;2022-10-16T00:27:26;100258.13;;;13.86;100.00
24230;BME280;12362;50.004;8.006;2022-10-16T00:29:52;100252.38;;;13.81;100.00
24230;BME280;12362;50.004;8.006;2022-10-16T00:32:18;100249.03;;;13.79;100.00
24230;BME280;12362;50.004;8.006;2022-10-16T00:34:45;100250.81;;;13.79;100.00
24230;BME280;12362;50.004;8.006;2022-10-16T00:37:11;100253.19;;;13.82;100.00
24230;BME280;12362;50.004;8.006;2022-10-16T00:39:37;100256.66;;;13.82;100.00
24230;BME280;12362;50.004;8.006;2022-10-16T00:42:02;100258.22;;;13.85;100.00
24230;BME280;12362;50.004;8.006;2022-10-16T00:45:04;100265.16;;;13.72;100.00
24230;BME280;12362;50.004;8.006;2022-10-16T00:47:39;100263.66;;;13.68;100.00
24230;BME280;12362;50.004;8.006;2022-10-16T00:50:09;100273.84;;;13.72;100.00
24230;BME280;12362;50.004;8.006;2022-10-16T00:52:38;100282.31;;;13.76;100.00
24230;BME280;12362;50.004;8.006;2022-10-16T00:55:06;100286.16;;;13.70;100.00
24230;BME280;12362;50.004;8.006;2022-10-16T00:57:32;100288.59;;;13.60;100.00
24230;BME280;12362;50.004;8.006;2022-10-16T00:59:57;100276.81;;;13.66;100.00
24230;BME280;12362;50.004;8.006;2022-10-16T01:02:24;100274.97;;;13.68;100.00
24230;BME280;12362;50.004;8.006;2022-10-16T01:04:51;100276.47;;;13.72;100.00
24230;BME280;12362;50.004;8.006;2022-10-16T01:10:44;100262.72;;;13.83;100.00
24230;BME280;12362;50.004;8.006;2022-10-16T01:13:24;100259.78;;;13.87;100.00
24230;BME280;12362;50.004;8.006;2022-10-16T01:15:57;100268.06;;;13.94;100.00
24230;BME280;12362;50.004;8.006;2022-10-16T01:18:52;100264.63;;;13.93;100.00
24230;BME280;12362;50.004;8.006;2022-10-16T01:21:35;100267.25;;;13.93;100.00
24230;BME280;12362;50.004;8.006;2022-10-16T01:24:08;100279.44;;;13.93;100.00
24230;BME280;12362;50.004;8.006;2022-10-16T01:29:35;100284.97;;;13.88;100.00
24230;BME280;12362;50.004;8.006;2022-10-16T01:32:15;100297.28;;;13.86;100.00
24230;BME280;12362;50.004;8.006;2022-10-16T01:34:47;100294.59;;;13.88;100.00
24230;BME280;12362;50.004;8.006;2022-10-16T01:37:20;100291.22;;;13.86;100.00
24230;BME280;12362;50.004;8.006;2022-10-16T01:39:48;100297.28;;;13.86;100.00
24230;BME280;12362;50.004;8.006;2022-10-16T01:42:24;100302.94;;;13.93;100.00
24230;BME280;12362;50.004;8.006;2022-10-16T01:44:52;100306.22;;;13.96;100.00
24230;BME280;12362;50.004;8.006;2022-10-16T01:47:22;100311.03;;;14.02;100.00
24230;BME280;12362;50.004;8.006;2022-10-16T01:49:49;100307.78;;;13.99;100.00
24230;BME280;12362;50.004;8.006;2022-10-16T01:52:20;100293.69;;;14.01;100.00
24230;BME280;12362;50.004;8.006;2022-10-16T01:54:50;100296.31;;;14.01;100.00
24230;BME280;12362;50.004;8.006;2022-10-16T01:57:18;100299.03;;;14.00;100.00
24230;BME280;12362;50.004;8.006;2022-10-16T01:59:48;100295.91;;;14.07;100.00
24230;BME280;12362;50.004;8.006;2022-10-16T02:02:17;100316.25;;;14.16;100.00
24230;BME280;12362;50.004;8.006;2022-10-16T02:04:47;100314.38;;;14.18;100.00
24230;BME280;12362;50.004;8.006;2022-10-16T02:07:14;100311.16;;;14.27;100.00
24230;BME280;12362;50.004;8.006;2022-10-16T02:09:40;100303.97;;;14.31;100.00
24230;BME280;12362;50.004;8.006;2022-10-16T02:12:15;100309.00;;;14.34;100.00
24230;BME280;12362;50.004;8.006;2022-10-16T02:14:44;100315.41;;;14.42;100.00
24230;BME280;12362;50.004;8.006;2022-10-16T02:17:16;100304.84;;;14.44;100.00
24230;BME280;12362;50.004;8.006;2022-10-16T02:19:42;100304.00;;;14.43;100.00
24230;BME280;12362;50.004;8.006;2022-10-16T02:22:17;100311.94;;;14.42;100.00
24230;BME280;12362;50.004;8.006;2022-10-16T02:27:30;100321.38;;;14.44;100.00
24230;BME280;12362;50.004;8.006;2022-10-16T02:30:25;100327.41;;;14.45;100.00
24230;BME280;12362;50.004;8.006;2022-10-16T02:32:52;100331.59;;;14.47;100.00
24230;BME280;12362;50.004;8.006;2022-10-16T02:35:20;100320.50;;;14.44;100.00
24230;BME280;12362;50.004;8.006;2022-10-16T02:37:48;100325.72;;;14.44;100.00
24230;BME280;12362;50.004;8.006;2022-10-16T02:40:15;100316.97;;;14.45;100.00
24230;BME280;12362;50.004;8.006;2022-10-16T02:42:41;100312.66;;;14.44;100.00
24230;BME280;12362;50.004;8.006;2022-10-16T02:45:08;100299.81;;;14.41;100.00
24230;BME280;12362;50.004;8.006;2022-10-16T02:47:34;100306.50;;;14.45;100.00
24230;BME280;12362;50.004;8.006;2022-10-16T02:49:59;100309.56;;;14.51;100.00
24230;BME280;12362;50.004;8.006;2022-10-16T02:52:25;100313.09;;;14.50;100.00
24230;BME280;12362;50.004;8.006;2022-10-16T02:54:50;100319.91;;;14.52;100.00
24230;BME280;12362;50.004;8.006;2022-10-16T02:57:17;100312.28;;;14.50;100.00
24230;BME280;12362;50.004;8.006;2022-10-16T02:59:43;100316.13;;;14.44;100.00
24230;BME280;12362;50.004;8.006;2022-10-16T03:02:08;100312.28;;;14.50;100.00
24230;BME280;12362;50.004;8.006;2022-10-16T03:04:34;100322.63;;;14.51;100.00
24230;BME280;12362;50.004;8.006;2022-10-16T03:06:59;100326.81;;;14.53;100.00
24230;BME280;12362;50.004;8.006;2022-10-16T03:09:25;100329.41;;;14.53;100.00
24230;BME280;12362;50.004;8.006;2022-10-16T03:11:50;100333.69;;;14.42;100.00
24230;BME280;12362;50.004;8.006;2022-10-16T03:14:17;100329.03;;;14.33;100.00
24230;BME280;12362;50.004;8.006;2022-10-16T03:16:42;100309.94;;;14.33;100.00
24230;BME280;12362;50.004;8.006;2022-10-16T03:19:08;100310.75;;;14.33;100.00
24230;BME280;12362;50.004;8.006;2022-10-16T03:21:33;100319.25;;;14.37;100.00
24230;BME280;12362;50.004;8.006;2022-10-16T03:23:58;100322.59;;;14.39;100.00
24230;BME280;12362;50.004;8.006;2022-10-16T03:26:24;100324.25;;;14.40;100.00
24230;BME280;12362;50.004;8.006;2022-10-16T03:28:49;100334.50;;;14.43;100.00
24230;BME280;12362;50.004;8.006;2022-10-16T03:31:14;100335.13;;;14.46;100.00
24230;BME280;12362;50.004;8.006;2022-10-16T03:33:40;100336.50;;;14.52;100.00
24230;BME280;12362;50.004;8.006;2022-10-16T03:36:05;100335.38;;;14.55;100.00
24230;BME280;12362;50.004;8.006;2022-10-16T03:38:31;100343.78;;;14.60;100.00
24230;BME280;12362;50.004;8.006;2022-10-16T03:40:57;100343.97;;;14.57;100.00
24230;BME280;12362;50.004;8.006;2022-10-16T03:43:22;100330.28;;;14.54;100.00
24230;BME280;12362;50.004;8.006;2022-10-16T03:45:50;100335.69;;;14.51;100.00
24230;BME280;12362;50.004;8.006;2022-10-16T03:48:15;100336.31;;;14.54;100.00
24230;BME280;12362;50.004;8.006;2022-10-16T03:50:40;100343.97;;;14.57;100.00
24230;BME280;12362;50.004;8.006;2022-10-16T03:53:06;100344.69;;;14.59;100.00
24230;BME280;12362;50.004;8.006;2022-10-16T03:55:31;100344.41;;;14.64;100.00
24230;BME280;12362;50.004;8.006;2022-10-16T03:57:57;100345.97;;;14.66;100.00
24230;BME280;12362;50.004;8.006;2022-10-16T04:00:22;100341.66;;;14.65;100.00
24230;BME280;12362;50.004;8.006;2022-10-16T04:02:47;100349.06;;;14.59;100.00
24230;BME280;12362;50.004;8.006;2022-10-16T04:05:13;100348.56;;;14.54;100.00
24230;BME280;12362;50.004;8.006;2022-10-16T04:07:38;100340.72;;;14.54;100.00
24230;BME280;12362;50.004;8.006;2022-10-16T04:10:04;100338.59;;;14.47;100.00
24230;BME280;12362;50.004;8.006;2022-10-16T04:12:29;100347.19;;;14.49;100.00
24230;BME280;12362;50.004;8.006;2022-10-16T04:15:01;100351.66;;;14.47;100.00
24230;BME280;12362;50.004;8.006;2022-10-16T04:17:27;100348.13;;;14.48;100.00
24230;BME280;12362;50.004;8.006;2022-10-16T04:19:52;100350.00;;;14.46;100.00
24230;BME280;12362;50.004;8.006;2022-10-16T04:22:17;100352.72;;;14.44;100.00
24230;BME280;12362;50.004;8.006;2022-10-16T04:24:43;100343.59;;;14.37;100.00
24230;BME280;12362;50.004;8.006;2022-10-16T04:27:08;100346.19;;;14.37;100.00
24230;BME280;12362;50.004;8.006;2022-10-16T04:29:34;100353.94;;;14.39;100.00
24230;BME280;12362;50.004;8.006;2022-10-16T04:31:59;100358.22;;;14.40;100.00
24230;BME280;12362;50.004;8.006;2022-10-16T04:34:24;100347.88;;;14.38;100.00
24230;BME280;12362;50.004;8.006;2022-10-16T04:36:50;100360.00;;;14.39;100.00
24230;BME280;12362;50.004;8.006;2022-10-16T04:39:16;100371.00;;;14.44;100.00
24230;BME280;12362;50.004;8.006;2022-10-16T04:41:41;100369.09;;;14.46;100.00
24230;BME280;12362;50.004;8.006;2022-10-16T04:44:07;100374.25;;;14.48;100.00
24230;BME280;12362;50.004;8.006;2022-10-16T04:46:33;100363.66;;;14.37;100.00
24230;BME280;12362;50.004;8.006;2022-10-16T04:48:58;100362.63;;;14.39;100.00
24230;BME280;12362;50.004;8.006;2022-10-16T04:51:24;100368.88;;;14.37;100.00
24230;BME280;12362;50.004;8.006;2022-10-16T04:53:50;100369.91;;;14.34;100.00
24230;BME280;12362;50.004;8.006;2022-10-16T04:56:16;100366.94;;;14.26;100.00
24230;BME280;12362;50.004;8.006;2022-10-16T04:58:41;100359.75;;;14.30;100.00
24230;BME280;12362;50.004;8.006;2022-10-16T05:01:07;100371.69;;;14.34;100.00
24230;BME280;12362;50.004;8.006;2022-10-16T05:03:32;100365.41;;;14.36;100.00
24230;BME280;12362;50.004;8.006;2022-10-16T05:05:57;100372.94;;;14.41;100.00
24230;BME280;12362;50.004;8.006;2022-10-16T05:08:23;100365.13;;;14.41;100.00
24230;BME280;12362;50.004;8.006;2022-10-16T05:10:48;100366.91;;;14.40;100.00
24230;BME280;12362;50.004;8.006;2022-10-16T05:13:14;100373.88;;;14.40;100.00
24230;BME280;12362;50.004;8.006;2022-10-16T05:15:47;100367.94;;;14.38;100.00
24230;BME280;12362;50.004;8.006;2022-10-16T05:18:13;100368.13;;;14.35;100.00
24230;BME280;12362;50.004;8.006;2022-10-16T05:20:38;100377.94;;;14.31;100.00
24230;BME280;12362;50.004;8.006;2022-10-16T05:23:04;100376.16;;;14.32;100.00
24230;BME280;12362;50.004;8.006;2022-10-16T05:25:29;100385.69;;;14.33;100.00
24230;BME280;12362;50.004;8.006;2022-10-16T05:27:55;100388.28;;;14.33;100.00
24230;BME280;12362;50.004;8.006;2022-10-16T05:30:20;100392.28;;;14.38;100.00
24230;BME280;12362;50.004;8.006;2022-10-16T05:32:49;100386.75;;;14.43;100.00
24230;BME280;12362;50.004;8.006;2022-10-16T05:35:16;100391.16;;;14.42;100.00
24230;BME280;12362;50.004;8.006;2022-10-16T05:37:42;100405.91;;;14.43;100.00
24230;BME280;12362;50.004;8.006;2022-10-16T05:40:09;100405.22;;;14.40;100.00
24230;BME280;12362;50.004;8.006;2022-10-16T05:42:35;100407.41;;;14.33;100.00
24230;BME280;12362;50.004;8.006;2022-10-16T05:45:00;100407.63;;;14.30;100.00
24230;BME280;12362;50.004;8.006;2022-10-16T05:47:26;100398.63;;;14.34;100.00
24230;BME280;12362;50.004;8.006;2022-10-16T05:49:52;100406.47;;;14.34;100.00
24230;BME280;12362;50.004;8.006;2022-10-16T05:52:18;100412.44;;;14.36;100.00
24230;BME280;12362;50.004;8.006;2022-10-16T05:54:43;100417.78;;;14.35;100.00
24230;BME280;12362;50.004;8.006;2022-10-16T05:57:09;100414.13;;;14.37;100.00
24230;BME280;12362;50.004;8.006;2022-10-16T05:59:34;100420.38;;;14.35;100.00
24230;BME280;12362;50.004;8.006;2022-10-16T06:02:00;100429.03;;;14.35;100.00
24230;BME280;12362;50.004;8.006;2022-10-16T06:04:25;100429.91;;;14.36;100.00
24230;BME280;12362;50.004;8.006;2022-10-16T06:06:51;100428.97;;;14.37;100.00
24230;BME280;12362;50.004;8.006;2022-10-16T06:09:16;100416.84;;;14.36;100.00
24230;BME280;12362;50.004;8.006;2022-10-16T06:11:42;100412.34;;;14.38;100.00
24230;BME280;12362;50.004;8.006;2022-10-16T06:14:08;100411.31;;;14.40;100.00
24230;BME280;12362;50.004;8.006;2022-10-16T06:16:35;100414.88;;;14.39;100.00
24230;BME280;12362;50.004;8.006;2022-10-16T06:19:02;100413.00;;;14.41;100.00
24230;BME280;12362;50.004;8.006;2022-10-16T06:21:29;100415.69;;;14.40;100.00
24230;BME280;12362;50.004;8.006;2022-10-16T06:23:55;100416.44;;;14.42;100.00
24230;BME280;12362;50.004;8.006;2022-10-16T06:26:23;100406.91;;;14.41;100.00
24230;BME280;12362;50.004;8.006;2022-10-16T06:28:49;100416.53;;;14.40;100.00
24230;BME280;12362;50.004;8.006;2022-10-16T06:31:18;100426.06;;;14.41;100.00
24230;BME280;12362;50.004;8.006;2022-10-16T06:33:44;100433.72;;;14.44;100.00
24230;BME280;12362;50.004;8.006;2022-10-16T06:36:13;100429.88;;;14.50;100.00
24230;BME280;12362;50.004;8.006;2022-10-16T06:38:40;100431.25;;;14.55;100.00
24230;BME280;12362;50.004;8.006;2022-10-16T06:41:06;100441.59;;;14.56;100.00
24230;BME280;12362;50.004;8.006;2022-10-16T06:43:32;100442.41;;;14.57;100.00
24230;BME280;12362;50.004;8.006;2022-10-16T06:45:59;100442.72;;;14.52;100.00
24230;BME280;12362;50.004;8.006;2022-10-16T06:48:25;100447.09;;;14.52;100.00
24230;BME280;12362;50.004;8.006;2022-10-16T06:51:01;100448.03;;;14.51;100.00
24230;BME280;12362;50.004;8.006;2022-10-16T06:53:30;100447.75;;;14.55;100.00
24230;BME280;12362;50.004;8.006;2022-10-16T06:55:56;100439.72;;;14.58;100.00
24230;BME280;12362;50.004;8.006;2022-10-16T06:58:22;100443.81;;;14.62;100.00
24230;BME280;12362;50.004;8.006;2022-10-16T07:00:47;100454.06;;;14.65;100.00
24230;BME280;12362;50.004;8.006;2022-10-16T07:03:13;100462.34;;;14.72;100.00
24230;BME280;12362;50.004;8.006;2022-10-16T07:05:40;100475.97;;;14.77;100.00
24230;BME280;12362;50.004;8.006;2022-10-16T07:08:06;100473.88;;;14.82;100.00
24230;BME280;12362;50.004;8.006;2022-10-16T07:10:32;100472.13;;;14.82;100.00
24230;BME280;12362;50.004;8.006;2022-10-16T07:12:57;100476.09;;;14.88;100.00
24230;BME280;12362;50.004;8.006;2022-10-16T07:15:24;100480.09;;;14.93;100.00
24230;BME280;12362;50.004;8.006;2022-10-16T07:17:50;100491.00;;;15.00;100.00
24230;BME280;12362;50.004;8.006;2022-10-16T07:20:15;100497.50;;;15.07;100.00
24230;BME280;12362;50.004;8.006;2022-10-16T07:22:41;100493.63;;;15.12;100.00
24230;BME280;12362;50.004;8.006;2022-10-16T07:25:07;100492.63;;;15.15;100.00
24230;BME280;12362;50.004;8.006;2022-10-16T07:27:32;100505.41;;;15.19;100.00
24230;BME280;12362;50.004;8.006;2022-10-16T07:29:58;100487.81;;;15.21;100.00
24230;BME280;12362;50.004;8.006;2022-10-16T07:32:23;100503.25;;;15.26;100.00
24230;BME280;12362;50.004;8.006;2022-10-16T07:34:51;100500.97;;;15.34;100.00
24230;BME280;12362;50.004;8.006;2022-10-16T07:37:17;100504.81;;;15.41;100.00
24230;BME280;12362;50.004;8.006;2022-10-16T07:39:42;100509.66;;;15.47;100.00
24230;BME280;12362;50.004;8.006;2022-10-16T07:42:08;100518.16;;;15.50;100.00
24230;BME280;12362;50.004;8.006;2022-10-16T07:44:33;100518.69;;;15.55;100.00
24230;BME280;12362;50.004;8.006;2022-10-16T07:46:58;100522.56;;;15.62;100.00
24230;BME280;12362;50.004;8.006;2022-10-16T07:49:24;100521.31;;;15.67;100.00
24230;BME280;12362;50.004;8.006;2022-10-16T07:51:49;100527.09;;;15.72;100.00
24230;BME280;12362;50.004;8.006;2022-10-16T07:54:15;100528.13;;;15.82;100.00
24230;BME280;12362;50.004;8.006;2022-10-16T07:56:40;100533.16;;;15.85;100.00
24230;BME280;12362;50.004;8.006;2022-10-16T07:59:06;100544.06;;;15.92;100.00
24230;BME280;12362;50.004;8.006;2022-10-16T08:01:31;100550.00;;;15.94;100.00
24230;BME280;12362;50.004;8.006;2022-10-16T08:03:57;100559.16;;;16.01;100.00
24230;BME280;12362;50.004;8.006;2022-10-16T08:06:22;100549.41;;;16.03;100.00
24230;BME280;12362;50.004;8.006;2022-10-16T08:08:48;100556.00;;;16.08;100.00
24230;BME280;12362;50.004;8.006;2022-10-16T08:11:13;100560.94;;;16.13;100.00
24230;BME280;12362;50.004;8.006;2022-10-16T08:13:40;100552.22;;;16.12;100.00
24230;BME280;12362;50.004;8.006;2022-10-16T08:16:06;100557.06;;;16.18;100.00
24230;BME280;12362;50.004;8.006;2022-10-16T08:18:37;100557.66;;;16.22;100.00
24230;BME280;12362;50.004;8.006;2022-10-16T08:21:04;100568.16;;;16.22;100.00
24230;BME280;12362;50.004;8.006;2022-10-16T08:23:29;100578.75;;;16.20;100.00
24230;BME280;12362;50.004;8.006;2022-10-16T08:25:56;100590.19;;;16.19;100.00
24230;BME280;12362;50.004;8.006;2022-10-16T08:28:22;100591.00;;;16.07;100.00
24230;BME280;12362;50.004;8.006;2022-10-16T08:30:48;100593.72;;;16.06;100.00
24230;BME280;12362;50.004;8.006;2022-10-16T08:33:14;100585.34;;;16.13;100.00
24230;BME280;12362;50.004;8.006;2022-10-16T08:35:39;100591.31;;;16.15;100.00
24230;BME280;12362;50.004;8.006;2022-10-16T08:38:05;100582.50;;;16.29;100.00
24230;BME280;12362;50.004;8.006;2022-10-16T08:40:33;100579.19;;;16.51;100.00
24230;BME280;12362;50.004;8.006;2022-10-16T08:43:22;100578.81;;;16.68;100.00
24230;BME280;12362;50.004;8.006;2022-10-16T08:46:16;100594.34;;;16.71;100.00
24230;BME280;12362;50.004;8.006;2022-10-16T08:48:49;100593.94;;;16.65;100.00
24230;BME280;12362;50.004;8.006;2022-10-16T08:51:21;100608.59;;;16.67;100.00
24230;BME280;12362;50.004;8.006;2022-10-16T08:54:15;100611.84;;;16.71;100.00
24230;BME280;12362;50.004;8.006;2022-10-16T08:56:46;100605.25;;;16.65;100.00
24230;BME280;12362;50.004;8.006;2022-10-16T08:59:13;100608.81;;;16.64;100.00
24230;BME280;12362;50.004;8.006;2022-10-16T09:01:41;100614.22;;;16.50;100.00
24230;BME280;12362;50.004;8.006;2022-10-16T09:12:40;100634.31;;;16.50;100.00
24230;BME280;12362;50.004;8.006;2022-10-16T09:15:23;100633.34;;;16.76;100.00
24230;BME280;12362;50.004;8.006;2022-10-16T09:18:07;100635.25;;;17.10;100.00
24230;BME280;12362;50.004;8.006;2022-10-16T09:20:51;100635.53;;;17.18;100.00
24230;BME280;12362;50.004;8.006;2022-10-16T09:23:24;100640.31;;;17.13;100.00
24230;BME280;12362;50.004;8.006;2022-10-16T09:25:51;100638.09;;;17.42;100.00
24230;BME280;12362;50.004;8.006;2022-10-16T09:28:18;100641.72;;;17.76;100.00
24230;BME280;12362;50.004;8.006;2022-10-16T09:30:44;100635.84;;;18.07;100.00
24230;BME280;12362;50.004;8.006;2022-10-16T09:33:11;100632.94;;;18.22;100.00
24230;BME280;12362;50.004;8.006;2022-10-16T09:35:43;100635.72;;;17.97;100.00
24230;BME280;12362;50.004;8.006;2022-10-16T09:38:21;100646.25;;;17.74;100.00
24230;BME280;12362;50.004;8.006;2022-10-16T09:40:47;100646.81;;;17.66;100.00
24230;BME280;12362;50.004;8.006;2022-10-16T09:43:25;100638.41;;;18.19;100.00
24230;BME280;12362;50.004;8.006;2022-10-16T09:46:06;100640.88;;;18.44;100.00
24230;BME280;12362;50.004;8.006;2022-10-16T09:48:37;100642.41;;;18.90;100.00
24230;BME280;12362;50.004;8.006;2022-10-16T09:51:06;100646.22;;;19.30;100.00
24230;BME280;12362;50.004;8.006;2022-10-16T09:53:43;100648.16;;;19.17;100.00
24230;BME280;12362;50.004;8.006;2022-10-16T09:56:20;100643.72;;;19.07;100.00
24230;BME280;12362;50.004;8.006;2022-10-16T09:58:57;100644.56;;;19.07;100.00
24230;BME280;12362;50.004;8.006;2022-10-16T10:01:35;100650.56;;;20.14;100.00
24230;BME280;12362;50.004;8.006;2022-10-16T10:04:06;100655.03;;;20.34;100.00
24230;BME280;12362;50.004;8.006;2022-10-16T10:06:36;100651.44;;;20.35;100.00
24230;BME280;12362;50.004;8.006;2022-10-16T10:09:17;100644.63;;;20.92;100.00
24230;BME280;12362;50.004;8.006;2022-10-16T10:11:50;100639.94;;;21.05;100.00
24230;BME280;12362;50.004;8.006;2022-10-16T10:19:58;100646.16;;;20.85;100.00
24230;BME280;12362;50.004;8.006;2022-10-16T10:38:47;100646.72;;;20.18;100.00
24230;BME280;12362;50.004;8.006;2022-10-16T10:44:03;100647.25;;;20.62;100.00
24230;BME280;12362;50.004;8.006;2022-10-16T10:46:55;100648.78;;;20.65;100.00
24230;BME280;12362;50.004;8.006;2022-10-16T10:54:42;100645.19;;;20.66;100.00
24230;BME280;12362;50.004;8.006;2022-10-16T11:00:23;100645.94;;;20.77;100.00
24230;BME280;12362;50.004;8.006;2022-10-16T11:05:52;100641.91;;;20.73;100.00
24230;BME280;12362;50.004;8.006;2022-10-16T11:08:29;100645.75;;;20.90;100.00
24230;BME280;12362;50.004;8.006;2022-10-16T11:11:32;100642.84;;;20.72;100.00
24230;BME280;12362;50.004;8.006;2022-10-16T11:17:29;100652.44;;;20.03;100.00
24230;BME280;12362;50.004;8.006;2022-10-16T11:20:02;100639.03;;;20.06;100.00
24230;BME280;12362;50.004;8.006;2022-10-16T11:22:35;100646.00;;;20.16;100.00
24230;BME280;12362;50.004;8.006;2022-10-16T11:25:27;100637.38;;;20.14;100.00
24230;BME280;12362;50.004;8.006;2022-10-16T11:28:06;100628.34;;;20.57;100.00
24230;BME280;12362;50.004;8.006;2022-10-16T11:30:49;100628.13;;;20.70;100.00
24230;BME280;12362;50.004;8.006;2022-10-16T11:41:26;100633.31;;;21.20;100.00
24230;BME280;12362;50.004;8.006;2022-10-16T11:44:04;100633.31;;;21.20;100.00
24230;BME280;12362;50.004;8.006;2022-10-16T11:46:48;100636.53;;;20.84;100.00
24230;BME280;12362;50.004;8.006;2022-10-16T11:49:17;100630.22;;;20.76;100.00
24230;BME280;12362;50.004;8.006;2022-10-16T11:52:10;100634.31;;;20.80;100.00
24230;BME280;12362;50.004;8.006;2022-10-16T11:54:52;100633.59;;;20.78;100.00
24230;BME280;12362;50.004;8.006;2022-10-16T11:57:38;100639.91;;;20.86;100.00
24230;BME280;12362;50.004;8.006;2022-10-16T12:03:08;100626.88;;;21.71;100.00
24230;BME280;12362;50.004;8.006;2022-10-16T12:08:36;100630.13;;;21.16;100.00
24230;BME280;12362;50.004;8.006;2022-10-16T12:11:31;100641.81;;;21.23;100.00
24230;BME280;12362;50.004;8.006;2022-10-16T12:16:39;100637.66;;;21.30;100.00
24230;BME280;12362;50.004;8.006;2022-10-16T12:19:16;100643.31;;;21.16;100.00
24230;BME280;12362;50.004;8.006;2022-10-16T12:21:43;100641.94;;;21.22;100.00
24230;BME280;12362;50.004;8.006;2022-10-16T12:24:32;100636.22;;;21.17;100.00
24230;BME280;12362;50.004;8.006;2022-10-16T12:26:58;100639.31;;;21.22;100.00
24230;BME280;12362;50.004;8.006;2022-10-16T12:29:37;100641.22;;;21.01;100.00
24230;BME280;12362;50.004;8.006;2022-10-16T12:32:38;100638.53;;;20.71;100.00
24230;BME280;12362;50.004;8.006;2022-10-16T12:35:06;100635.34;;;20.68;100.00
24230;BME280;12362;50.004;8.006;2022-10-16T12:37:48;100639.00;;;20.76;100.00
24230;BME280;12362;50.004;8.006;2022-10-16T12:40:31;100645.34;;;20.94;100.00
24230;BME280;12362;50.004;8.006;2022-10-16T12:42:57;100652.88;;;21.08;100.00
24230;BME280;12362;50.004;8.006;2022-10-16T12:45:32;100647.47;;;21.00;100.00
24230;BME280;12362;50.004;8.006;2022-10-16T12:48:00;100644.53;;;21.03;100.00
24230;BME280;12362;50.004;8.006;2022-10-16T12:50:38;100643.75;;;21.12;100.00
24230;BME280;12362;50.004;8.006;2022-10-16T12:53:22;100656.84;;;21.32;100.00
24230;BME280;12362;50.004;8.006;2022-10-16T13:01:55;100642.59;;;20.96;100.00
24230;BME280;12362;50.004;8.006;2022-10-16T13:04:29;100636.38;;;21.15;100.00
24230;BME280;12362;50.004;8.006;2022-10-16T13:09:56;100643.97;;;22.05;100.00
24230;BME280;12362;50.004;8.006;2022-10-16T13:29:32;100637.69;;;21.49;100.00
24230;BME280;12362;50.004;8.006;2022-10-16T13:32:32;100631.28;;;21.42;100.00
24230;BME280;12362;50.004;8.006;2022-10-16T13:35:01;100629.47;;;21.43;100.00
24230;BME280;12362;50.004;8.006;2022-10-16T13:37:26;100629.31;;;21.35;100.00
24230;BME280;12362;50.004;8.006;2022-10-16T13:40:06;100622.88;;;21.09;100.00
24230;BME280;12362;50.004;8.006;2022-10-16T13:42:37;100617.38;;;20.82;100.00
24230;BME280;12362;50.004;8.006;2022-10-16T13:45:23;100617.91;;;20.86;100.00
24230;BME280;12362;50.004;8.006;2022-10-16T13:48:01;100624.34;;;20.93;100.00
24230;BME280;12362;50.004;8.006;2022-10-16T13:50:27;100627.97;;;20.92;100.00
24230;BME280;12362;50.004;8.006;2022-10-16T13:53:03;100630.81;;;20.79;100.00
24230;BME280;12362;50.004;8.006;2022-10-16T13:55:31;100635.59;;;20.85;100.00
24230;BME280;12362;50.004;8.006;2022-10-16T13:58:14;100640.41;;;20.80;100.00
24230;BME280;12362;50.004;8.006;2022-10-16T14:00:41;100637.50;;;20.83;100.00
24230;BME280;12362;50.004;8.006;2022-10-16T14:03:18;100637.78;;;20.80;100.00
24230;BME280;12362;50.004;8.006;2022-10-16T14:05:50;100641.38;;;20.79;100.00
24230;BME280;12362;50.004;8.006;2022-10-16T14:08:17;100644.78;;;20.70;100.00
24230;BME280;12362;50.004;8.006;2022-10-16T14:10:42;100642.72;;;20.74;100.00
24230;BME280;12362;50.004;8.006;2022-10-16T14:13:28;100633.97;;;20.73;100.00
24230;BME280;12362;50.004;8.006;2022-10-16T14:15:55;100635.47;;;20.66;100.00
24230;BME280;12362;50.004;8.006;2022-10-16T14:18:25;100636.06;;;20.70;100.00
24230;BME280;12362;50.004;8.006;2022-10-16T14:20:51;100639.09;;;20.65;100.00
24230;BME280;12362;50.004;8.006;2022-10-16T14:25:46;100642.38;;;20.78;100.00
24230;BME280;12362;50.004;8.006;2022-10-16T14:28:22;100635.19;;;20.69;100.00
24230;BME280;12362;50.004;8.006;2022-10-16T14:30:59;100641.81;;;20.54;100.00
24230;BME280;12362;50.004;8.006;2022-10-16T14:38:28;100645.50;;;20.02;100.00
24230;BME280;12362;50.004;8.006;2022-10-16T14:40:57;100640.09;;;20.03;100.00